createdAt,value
2019-04-07T00:01:48.773Z,98899.77
2019-04-07T00:04:17.967Z,98893.63
2019-04-07T00:06:47.670Z,98897.03
2019-04-07T00:09:17.652Z,98901.70
2019-04-07T00:11:47.230Z,98907.47
2019-04-07T00:14:16.779Z,98900.50
2019-04-07T00:16:45.992Z,98897.25
2019-04-07T00:19:15.795Z,98895.36
2019-04-07T00:21:45.655Z,98895.83
2019-04-07T00:24:15.000Z,98898.20
2019-04-07T00:26:44.823Z,98902.89
2019-04-07T00:29:14.477Z,98901.67
2019-04-07T00:31:43.956Z,98901.17
2019-04-07T00:34:15.423Z,98902.28
2019-04-07T00:36:45.909Z,98903.58
2019-04-07T00:39:15.452Z,98904.40
2019-04-07T00:41:44.578Z,98913.63
2019-04-07T00:44:14.669Z,98914.08
2019-04-07T00:46:44.461Z,98909.48
2019-04-07T00:49:13.927Z,98909.95
2019-04-07T00:51:43.389Z,98910.53
2019-04-07T00:54:12.877Z,98909.12
2019-04-07T00:56:43.841Z,98913.22
2019-04-07T00:59:13.446Z,98907.50
2019-04-07T01:01:43.029Z,98906.98
2019-04-07T01:04:12.311Z,98909.56
2019-04-07T01:06:42.205Z,98914.44
2019-04-07T01:09:13.434Z,98919.94
2019-04-07T01:11:43.090Z,98914.44
2019-04-07T01:14:12.496Z,98914.44
2019-04-07T01:16:42.055Z,98919.57
2019-04-07T01:19:11.584Z,98921.28
2019-04-07T01:21:41.056Z,98912.18
2019-04-07T01:24:10.520Z,98921.34
2019-04-07T01:26:40.505Z,98913.45
2019-04-07T01:29:10.214Z,98921.97
2019-04-07T01:31:40.424Z,98925.83
2019-04-07T01:34:09.726Z,98919.19
2019-04-07T01:36:39.328Z,98921.52
2019-04-07T01:39:10.596Z,98924.59
2019-04-07T01:41:43.471Z,98914.03
2019-04-07T01:44:14.616Z,98914.53
2019-04-07T01:46:45.917Z,98912.12
2019-04-07T01:49:17.063Z,98916.38
2019-04-07T01:51:48.799Z,98920.40
2019-04-07T01:54:18.046Z,98915.42
2019-04-07T01:56:49.379Z,98918.41
2019-04-07T01:59:20.914Z,98916.36
2019-04-07T02:01:54.064Z,98921.05
2019-04-07T02:04:25.244Z,98917.48
2019-04-07T02:06:56.471Z,98929.09
2019-04-07T02:09:27.944Z,98925.54
2019-04-07T02:12:00.572Z,98927.63
2019-04-07T02:14:31.473Z,98931.00
2019-04-07T02:17:04.293Z,98926.35
2019-04-07T02:19:35.933Z,98923.08
2019-04-07T02:22:07.809Z,98919.16
2019-04-07T02:24:39.925Z,98927.09
2019-04-07T02:27:11.129Z,98920.56
2019-04-07T02:29:45.052Z,98917.52
2019-04-07T02:32:17.417Z,98920.34
2019-04-07T02:34:49.059Z,98925.17
2019-04-07T02:37:19.238Z,98920.11
2019-04-07T02:39:53.338Z,98920.86
2019-04-07T02:42:25.068Z,98918.70
2019-04-07T02:44:56.101Z,98921.91
2019-04-07T02:47:31.432Z,98923.89
2019-04-07T02:50:03.388Z,98920.27
2019-04-07T02:52:35.621Z,98920.32
2019-04-07T02:55:11.142Z,98916.30
2019-04-07T02:57:42.172Z,98919.95
2019-04-07T03:00:13.966Z,98922.57
2019-04-07T03:02:45.974Z,98926.73
2019-04-07T03:05:17.466Z,98928.52
2019-04-07T03:07:48.846Z,98930.66
2019-04-07T03:10:22.811Z,98940.56
2019-04-07T03:12:54.700Z,98940.56
2019-04-07T03:15:26.916Z,98936.89
2019-04-07T03:17:58.292Z,98934.09
2019-04-07T03:20:29.631Z,98941.53
2019-04-07T03:23:00.538Z,98936.91
2019-04-07T03:25:32.457Z,98942.37
2019-04-07T03:28:04.703Z,98941.55
2019-04-07T03:30:39.686Z,98940.73
2019-04-07T03:33:11.194Z,98943.92
2019-04-07T03:35:42.295Z,98947.88
2019-04-07T03:38:12.682Z,98942.22
2019-04-07T03:40:44.182Z,98942.16
2019-04-07T03:43:15.569Z,98943.92
2019-04-07T03:45:50.627Z,98939.02
2019-04-07T03:48:21.868Z,98940.89
2019-04-07T03:50:53.113Z,98945.06
2019-04-07T03:53:24.433Z,98947.00
2019-04-07T03:55:55.855Z,98945.36
2019-04-07T03:58:25.908Z,98940.42
2019-04-07T04:00:58.139Z,98945.34
2019-04-07T04:03:30.168Z,98946.39
2019-04-07T04:06:04.652Z,98944.18
2019-04-07T04:08:35.882Z,98952.84
2019-04-07T04:11:07.079Z,98950.31
2019-04-07T04:13:38.219Z,98954.67
2019-04-07T04:16:08.129Z,98951.25
2019-04-07T04:18:37.747Z,98950.66
2019-04-07T04:21:07.279Z,98948.72
2019-04-07T04:23:38.007Z,98947.86
2019-04-07T04:26:08.318Z,98950.20
2019-04-07T04:28:39.046Z,98952.36
2019-04-07T04:31:08.189Z,98952.59
2019-04-07T04:33:37.918Z,98950.95
2019-04-07T04:36:08.108Z,98950.55
2019-04-07T04:38:38.447Z,98957.53
2019-04-07T04:41:08.056Z,98955.49
2019-04-07T04:43:38.194Z,98955.64
2019-04-07T04:46:09.969Z,98952.08
2019-04-07T04:48:39.390Z,98952.30
2019-04-07T04:51:09.758Z,98961.29
2019-04-07T04:53:39.397Z,98959.13
2019-04-07T04:56:09.730Z,98965.27
2019-04-07T04:58:38.899Z,98962.41
2019-04-07T05:01:08.497Z,98961.77
2019-04-07T05:03:38.359Z,98966.84
2019-04-07T05:06:07.871Z,98967.80
2019-04-07T05:08:37.878Z,98973.48
2019-04-07T05:11:07.890Z,98975.72
2019-04-07T05:13:37.537Z,98980.70
2019-04-07T05:16:07.194Z,98980.11
2019-04-07T05:18:37.146Z,98980.45
2019-04-07T05:21:06.939Z,98983.53
2019-04-07T05:23:36.505Z,98987.32
2019-04-07T05:26:06.899Z,98991.90
2019-04-07T05:28:37.049Z,98987.41
2019-04-07T05:31:07.448Z,98985.55
2019-04-07T05:33:36.932Z,98994.66
2019-04-07T05:36:06.944Z,98991.62
2019-04-07T05:38:36.682Z,98989.09
2019-04-07T05:41:06.518Z,98989.38
2019-04-07T05:43:35.974Z,98991.72
2019-04-07T05:46:07.333Z,98994.92
2019-04-07T05:48:37.098Z,99001.23
2019-04-07T05:51:07.234Z,99000.50
2019-04-07T05:53:36.821Z,99009.42
2019-04-07T05:56:06.346Z,99010.41
2019-04-07T05:58:38.670Z,99014.39
2019-04-07T06:01:07.503Z,99012.47
2019-04-07T06:03:41.211Z,99013.58
2019-04-07T06:06:08.312Z,99015.20
2019-04-07T06:08:39.946Z,99010.97
2019-04-07T06:11:09.488Z,99016.23
2019-04-07T06:13:39.146Z,99010.50
2019-04-07T06:16:08.196Z,99011.89
2019-04-07T06:18:37.908Z,99011.37
2019-04-07T06:21:07.777Z,99011.99
2019-04-07T06:23:37.525Z,99007.55
2019-04-07T06:26:11.344Z,99000.70
2019-04-07T06:28:39.262Z,99010.28
2019-04-07T06:31:09.471Z,99010.17
2019-04-07T06:33:39.369Z,99007.75
2019-04-07T06:36:09.445Z,99016.24
2019-04-07T06:38:43.200Z,99006.88
2019-04-07T06:41:11.456Z,99004.70
2019-04-07T06:43:41.253Z,99016.23
2019-04-07T06:46:10.812Z,99023.09
2019-04-07T06:48:45.107Z,99002.39
2019-04-07T06:51:17.377Z,99023.03
2019-04-07T06:53:49.210Z,99025.20
2019-04-07T06:56:21.496Z,99032.28
2019-04-07T06:58:55.628Z,99026.04
2019-04-07T07:01:27.447Z,99029.67
2019-04-07T07:03:58.734Z,99029.88
2019-04-07T07:06:29.996Z,99029.88
2019-04-07T07:09:01.969Z,99026.81
2019-04-07T07:11:34.660Z,99028.79
2019-04-07T07:14:06.277Z,99031.14
2019-04-07T07:16:41.083Z,99028.42
2019-04-07T07:19:10.654Z,99033.99
2019-04-07T07:21:42.633Z,99042.02
2019-04-07T07:24:14.663Z,99036.30
2019-04-07T07:26:44.133Z,99026.30
2019-04-07T07:29:15.265Z,99024.03
2019-04-07T07:31:44.950Z,99042.61
2019-04-07T07:34:15.540Z,99022.02
2019-04-07T07:36:46.688Z,99042.70
2019-04-07T07:39:17.670Z,99048.16
2019-04-07T07:41:50.323Z,99047.23
2019-04-07T07:44:18.836Z,99042.88
2019-04-07T07:46:50.398Z,99042.56
2019-04-07T07:49:19.519Z,99037.67
2019-04-07T07:51:49.125Z,99051.51
2019-04-07T07:54:18.884Z,99037.05
2019-04-07T07:56:51.179Z,99034.22
2019-04-07T07:59:20.093Z,99031.71
2019-04-07T08:01:51.335Z,99037.02
2019-04-07T08:04:20.785Z,99050.47
2019-04-07T08:06:50.188Z,99053.89
2019-04-07T08:09:23.113Z,99040.25
2019-04-07T08:11:51.150Z,99040.77
2019-04-07T08:14:20.620Z,99049.36
2019-04-07T08:16:50.163Z,99047.55
2019-04-07T08:19:21.094Z,99046.64
2019-04-07T08:21:51.974Z,99051.02
2019-04-07T08:24:21.855Z,99051.20
2019-04-07T08:26:54.029Z,99054.13
2019-04-07T08:29:22.657Z,99055.13
2019-04-07T08:31:55.158Z,99064.50
2019-04-07T08:34:23.298Z,99060.14
2019-04-07T08:36:53.069Z,99052.45
2019-04-07T08:39:35.427Z,99055.78
2019-04-07T08:42:18.605Z,99063.19
2019-04-07T08:44:47.294Z,99067.46
2019-04-07T08:47:21.183Z,99058.50
2019-04-07T08:49:48.259Z,99065.83
2019-04-07T08:52:21.106Z,99065.75
2019-04-07T08:54:52.403Z,99062.45
2019-04-07T08:57:21.523Z,99059.73
2019-04-07T08:59:51.385Z,99061.84
2019-04-07T09:02:22.435Z,99059.30
2019-04-07T09:04:52.473Z,99062.09
2019-04-07T09:07:24.355Z,99060.30
2019-04-07T09:09:52.689Z,99065.55
2019-04-07T09:12:21.916Z,99068.78
2019-04-07T09:14:51.453Z,99064.80
2019-04-07T09:17:30.645Z,99066.58
2019-04-07T09:19:57.121Z,99058.92
2019-04-07T09:22:30.363Z,99063.03
2019-04-07T09:25:06.655Z,99071.16
2019-04-07T09:27:35.277Z,99070.33
2019-04-07T09:30:10.077Z,99070.05
2019-04-07T09:32:42.710Z,99061.77
2019-04-07T09:35:14.460Z,99069.14
2019-04-07T09:37:45.566Z,99066.59
2019-04-07T09:40:17.573Z,99058.03
2019-04-07T09:42:49.612Z,99070.87
2019-04-07T09:45:20.748Z,99067.41
2019-04-07T09:47:52.006Z,99060.20
2019-04-07T09:50:26.886Z,99053.28
2019-04-07T09:52:58.709Z,99059.49
2019-04-07T09:55:30.106Z,99059.00
2019-04-07T09:58:01.922Z,99062.00
2019-04-07T10:00:33.892Z,99054.86
2019-04-07T10:03:08.605Z,99060.11
2019-04-07T10:05:40.141Z,99063.33
2019-04-07T10:08:16.753Z,99056.81
2019-04-07T10:10:47.333Z,99054.72
2019-04-07T10:13:18.897Z,99055.30
2019-04-07T10:15:52.157Z,99055.92
2019-04-07T10:18:24.016Z,99054.80
2019-04-07T10:20:55.857Z,99045.64
2019-04-07T10:23:27.180Z,99055.02
2019-04-07T10:25:58.515Z,99057.42
2019-04-07T10:28:29.712Z,99059.98
2019-04-07T10:31:01.130Z,99054.67
2019-04-07T10:33:35.773Z,99050.75
2019-04-07T10:36:07.903Z,99061.92
2019-04-07T10:38:39.132Z,99051.23
2019-04-07T10:41:10.754Z,99052.84
2019-04-07T10:43:42.506Z,99053.59
2019-04-07T10:46:14.629Z,99054.58
2019-04-07T10:48:46.648Z,99051.67
2019-04-07T10:51:18.460Z,99050.83
2019-04-07T10:53:51.103Z,99054.48
2019-04-07T10:56:22.529Z,99049.14
2019-04-07T10:58:56.718Z,99056.34
2019-04-07T11:01:26.698Z,99051.66
2019-04-07T11:03:58.048Z,99046.15
2019-04-07T11:06:29.510Z,99056.16
2019-04-07T11:09:00.451Z,99054.63
2019-04-07T11:11:36.053Z,99047.16
2019-04-07T11:14:07.869Z,99046.25
2019-04-07T11:16:42.144Z,99043.00
2019-04-07T11:19:13.293Z,99042.72
2019-04-07T11:21:44.666Z,99045.78
2019-04-07T11:24:16.565Z,99051.35
2019-04-07T11:26:48.583Z,99043.14
2019-04-07T11:29:18.191Z,99040.37
2019-04-07T11:31:53.251Z,99039.77
2019-04-07T11:34:24.549Z,99037.38
2019-04-07T11:36:56.116Z,99035.33
2019-04-07T11:39:27.495Z,99035.84
2019-04-07T11:42:01.448Z,99033.58
2019-04-07T11:44:33.895Z,99049.29
2019-04-07T11:47:06.331Z,99036.23
2019-04-07T11:49:37.726Z,99038.78
2019-04-07T11:52:09.839Z,99033.08
2019-04-07T11:54:43.844Z,99051.19
2019-04-07T11:57:15.376Z,99038.66
2019-04-07T11:59:49.068Z,99042.52
2019-04-07T12:02:23.149Z,99052.86
2019-04-07T12:04:54.316Z,99050.11
2019-04-07T12:07:25.445Z,99047.39
2019-04-07T12:09:56.975Z,99035.80
2019-04-07T12:12:28.884Z,99034.02
2019-04-07T12:15:00.229Z,99042.89
2019-04-07T12:17:33.993Z,99041.20
2019-04-07T12:20:06.481Z,99038.66
2019-04-07T12:22:37.950Z,99034.38
2019-04-07T12:25:10.526Z,99029.47
2019-04-07T12:27:44.632Z,99022.56
2019-04-07T12:30:15.484Z,99027.44
2019-04-07T12:32:47.779Z,99022.33
2019-04-07T12:35:19.121Z,99018.56
2019-04-07T12:37:58.021Z,99025.42
2019-04-07T12:40:29.026Z,99017.59
2019-04-07T12:43:00.252Z,99012.16
2019-04-07T12:45:31.901Z,99014.06
2019-04-07T12:48:01.469Z,99012.97
2019-04-07T12:50:32.816Z,99010.02
2019-04-07T12:53:04.876Z,99008.61
2019-04-07T12:55:36.155Z,99005.89
2019-04-07T12:58:11.568Z,99004.30
2019-04-07T13:00:55.794Z,99001.03
2019-04-07T13:03:15.567Z,99002.67
2019-04-07T13:05:46.714Z,98999.68
2019-04-07T13:08:22.537Z,98997.51
2019-04-07T13:10:51.238Z,99000.20
2019-04-07T13:13:24.357Z,98997.48
2019-04-07T13:15:55.204Z,98991.27
2019-04-07T13:18:26.457Z,98989.37
2019-04-07T13:21:01.136Z,98983.30
2019-04-07T13:23:32.985Z,98983.12
2019-04-07T13:26:04.070Z,98977.34
2019-04-07T13:28:35.909Z,98977.34
2019-04-07T13:31:07.325Z,98981.08
2019-04-07T13:33:41.411Z,98987.19
2019-04-07T13:36:12.638Z,98983.67
2019-04-07T13:38:44.541Z,98969.70
2019-04-07T13:41:18.595Z,98979.59
2019-04-07T13:43:49.457Z,98974.66
2019-04-07T13:46:27.850Z,98971.87
2019-04-07T13:48:58.800Z,98970.58
2019-04-07T13:51:26.849Z,98972.59
2019-04-07T13:54:02.020Z,98976.80
2019-04-07T13:56:33.045Z,98975.70
2019-04-07T13:59:08.164Z,98967.36
2019-04-07T14:01:37.028Z,98967.36
2019-04-07T14:04:08.916Z,98971.55
2019-04-07T14:06:43.629Z,98972.44
2019-04-07T14:09:13.218Z,98969.70
2019-04-07T14:11:57.205Z,98970.12
2019-04-07T14:14:17.917Z,98971.43
2019-04-07T14:16:52.808Z,98970.62
2019-04-07T14:19:24.211Z,98972.53
2019-04-07T14:21:55.732Z,98964.30
2019-04-07T14:24:25.182Z,98954.88
2019-04-07T14:26:56.699Z,98954.88
2019-04-07T14:29:28.432Z,98970.06
2019-04-07T14:32:00.874Z,98965.72
2019-04-07T14:34:32.742Z,98967.08
2019-04-07T14:37:05.397Z,98965.66
2019-04-07T14:39:39.340Z,98962.45
2019-04-07T14:42:10.066Z,98968.05
2019-04-07T14:44:41.425Z,98960.91
2019-04-07T14:47:12.836Z,98965.66
2019-04-07T14:49:51.748Z,98964.27
2019-04-07T14:52:21.612Z,98968.25
2019-04-07T14:54:56.998Z,98974.81
2019-04-07T14:57:26.063Z,98976.50
2019-04-07T15:00:00.042Z,98977.17
2019-04-07T15:02:30.217Z,98974.10
2019-04-07T15:05:01.404Z,98974.92
2019-04-07T15:07:32.792Z,98980.30
2019-04-07T15:10:04.079Z,98984.98
2019-04-07T15:12:35.946Z,98982.15
2019-04-07T15:15:11.215Z,98986.34
2019-04-07T15:17:39.352Z,98980.91
2019-04-07T15:20:11.641Z,98982.98
2019-04-07T15:22:39.944Z,98983.45
2019-04-07T15:25:10.284Z,98988.42
2019-04-07T15:27:40.175Z,98983.62
2019-04-07T15:30:13.277Z,98989.03
2019-04-07T15:32:41.644Z,98986.87
2019-04-07T15:35:12.455Z,98987.11
2019-04-07T15:37:42.580Z,98990.98
2019-04-07T15:40:12.266Z,98992.34
2019-04-07T15:42:44.432Z,98994.79
2019-04-07T15:45:13.457Z,98995.60
2019-04-07T15:47:42.995Z,98991.45
2019-04-07T15:50:13.764Z,98988.88
2019-04-07T15:52:45.959Z,98990.98
2019-04-07T15:55:14.827Z,98992.78
2019-04-07T15:57:44.293Z,98992.78
2019-04-07T16:00:15.247Z,98994.01
2019-04-07T16:02:44.545Z,98997.14
2019-04-07T16:05:14.836Z,99001.91
2019-04-07T16:07:44.916Z,99000.22
2019-04-07T16:10:14.699Z,99003.74
2019-04-07T16:12:50.018Z,99002.03
2019-04-07T16:15:17.890Z,99009.42
2019-04-07T16:17:47.616Z,99012.11
2019-04-07T16:20:23.962Z,99010.80
2019-04-07T16:22:51.398Z,99015.58
2019-04-07T16:25:22.732Z,99011.77
2019-04-07T16:27:51.113Z,99016.41
2019-04-07T16:30:20.520Z,99019.66
2019-04-07T16:32:49.651Z,99016.47
2019-04-07T16:35:19.276Z,99020.55
2019-04-07T16:37:48.789Z,99023.27
2019-04-07T16:40:18.486Z,99020.56
2019-04-07T16:43:01.256Z,99029.52
2019-04-07T16:45:19.247Z,99029.55
2019-04-07T16:47:48.681Z,99035.23
2019-04-07T16:50:20.292Z,99035.25
2019-04-07T16:52:49.715Z,99040.41
2019-04-07T16:55:23.599Z,99043.93
2019-04-07T16:57:53.143Z,99045.27
2019-04-07T17:00:22.710Z,99045.27
2019-04-07T17:02:52.847Z,99044.45
2019-04-07T17:05:24.461Z,99050.18
2019-04-07T17:07:56.013Z,99049.91
2019-04-07T17:10:29.587Z,99055.60
2019-04-07T17:12:58.257Z,99056.68
2019-04-07T17:15:28.476Z,99055.86
2019-04-07T17:17:58.808Z,99055.31
2019-04-07T17:20:33.324Z,99058.05
2019-04-07T17:23:00.397Z,99055.05
2019-04-07T17:25:32.825Z,99055.84
2019-04-07T17:28:03.685Z,99067.76
2019-04-07T17:30:32.513Z,99063.96
2019-04-07T17:33:03.245Z,99061.22
2019-04-07T17:35:32.834Z,99068.52
2019-04-07T17:38:06.298Z,99067.43
2019-04-07T17:40:36.469Z,99068.72
2019-04-07T17:43:08.222Z,99067.91
2019-04-07T17:45:39.300Z,99074.14
2019-04-07T17:48:13.397Z,99072.52
2019-04-07T17:50:44.549Z,99076.00
2019-04-07T17:53:17.638Z,99081.69
2019-04-07T17:55:48.933Z,99090.85
2019-04-07T17:58:23.078Z,99088.92
2019-04-07T18:00:54.468Z,99085.92
2019-04-07T18:03:25.774Z,99092.44
2019-04-07T18:06:00.033Z,99095.41
2019-04-07T18:08:29.563Z,99097.30
2019-04-07T18:11:01.049Z,99097.53
2019-04-07T18:13:43.441Z,99097.78
2019-04-07T18:16:06.270Z,99098.55
2019-04-07T18:18:37.825Z,99101.25
2019-04-07T18:21:11.737Z,99106.38
2019-04-07T18:23:42.060Z,99113.11
2019-04-07T18:26:15.610Z,99113.11
2019-04-07T18:28:46.491Z,99117.98
2019-04-07T18:31:17.946Z,99120.40
2019-04-07T18:33:52.598Z,99121.44
2019-04-07T18:36:25.688Z,99121.69
2019-04-07T18:38:56.959Z,99124.65
2019-04-07T18:41:30.828Z,99131.10
2019-04-07T18:44:08.560Z,99128.92
2019-04-07T18:46:42.261Z,99137.05
2019-04-07T18:49:13.432Z,99137.30
2019-04-07T18:51:49.735Z,99142.45
2019-04-07T18:54:21.426Z,99141.91
2019-04-07T18:56:54.578Z,99146.50
2019-04-07T18:59:25.861Z,99144.33
2019-04-07T19:01:59.994Z,99150.73
2019-04-07T19:04:31.582Z,99154.25
2019-04-07T19:07:02.819Z,99158.56
2019-04-07T19:09:34.434Z,99159.92
2019-04-07T19:12:10.448Z,99167.23
2019-04-07T19:14:44.506Z,99165.06
2019-04-07T19:17:10.685Z,99160.95
2019-04-07T19:19:42.058Z,99172.36
2019-04-07T19:22:15.927Z,99177.19
2019-04-07T19:24:46.302Z,99170.69
2019-04-07T19:27:21.624Z,99166.89
2019-04-07T19:29:53.267Z,99174.47
2019-04-07T19:32:25.087Z,99173.91
2019-04-07T19:34:57.187Z,99174.44
2019-04-07T19:37:28.316Z,99175.98
2019-04-07T19:40:03.005Z,99178.12
2019-04-07T19:42:38.795Z,99180.75
2019-04-07T19:45:09.144Z,99179.36
2019-04-07T19:47:44.400Z,99180.99
2019-04-07T19:50:16.907Z,99173.67
2019-04-07T19:52:48.283Z,99176.64
2019-04-07T19:55:22.687Z,99180.73
2019-04-07T19:57:52.583Z,99179.66
2019-04-07T20:00:26.316Z,99180.73
2019-04-07T20:02:57.380Z,99182.34
2019-04-07T20:05:28.595Z,99182.06
2019-04-07T20:08:02.579Z,99181.52
2019-04-07T20:10:32.659Z,99184.69
2019-04-07T20:13:05.537Z,99180.79
2019-04-07T20:15:41.775Z,99182.94
2019-04-07T20:18:12.450Z,99185.59
2019-04-07T20:20:44.690Z,99188.53
2019-04-07T20:23:17.458Z,99186.10
2019-04-07T20:25:49.301Z,99182.66
2019-04-07T20:28:20.529Z,99183.23
2019-04-07T20:30:52.800Z,99184.22
2019-04-07T20:33:23.193Z,99183.05
2019-04-07T20:35:54.407Z,99182.98
2019-04-07T20:38:27.296Z,99178.36
2019-04-07T20:41:01.413Z,99183.98
2019-04-07T20:43:33.020Z,99183.98
2019-04-07T20:46:04.614Z,99185.36
2019-04-07T20:48:37.025Z,99191.03
2019-04-07T20:51:08.466Z,99192.10
2019-04-07T20:53:40.775Z,99192.36
2019-04-07T20:56:13.036Z,99192.58
2019-04-07T20:58:52.513Z,99191.77
2019-04-07T21:01:22.328Z,99187.97
2019-04-07T21:03:56.060Z,99196.70
2019-04-07T21:06:29.915Z,99196.49
2019-04-07T21:09:02.751Z,99198.66
2019-04-07T21:11:33.303Z,99202.95
2019-04-07T21:14:04.612Z,99205.09
2019-04-07T21:16:35.741Z,99210.22
2019-04-07T21:19:08.382Z,99206.90
2019-04-07T21:21:43.303Z,99213.88
2019-04-07T21:24:14.454Z,99214.84
2019-04-07T21:26:45.959Z,99206.70
2019-04-07T21:29:18.110Z,99212.53
2019-04-07T21:31:49.484Z,99211.61
2019-04-07T21:34:23.960Z,99208.00
2019-04-07T21:36:54.024Z,99219.00
2019-04-07T21:39:30.462Z,99219.00
2019-04-07T21:42:01.781Z,99216.25
2019-04-07T21:44:33.751Z,99228.31
2019-04-07T21:47:04.969Z,99224.67
2019-04-07T21:49:39.500Z,99233.56
2019-04-07T21:52:09.897Z,99226.75
2019-04-07T21:54:41.578Z,99227.19
2019-04-07T21:57:14.083Z,99227.81
2019-04-07T21:59:44.666Z,99233.06
2019-04-07T22:02:15.964Z,99234.88
2019-04-07T22:04:46.389Z,99238.36
2019-04-07T22:07:23.403Z,99238.58
2019-04-07T22:09:57.304Z,99237.52
2019-04-07T22:12:30.204Z,99236.70
2019-04-07T22:14:57.809Z,99236.81
2019-04-07T22:17:27.698Z,99233.33
2019-04-07T22:19:57.272Z,99231.84
2019-04-07T22:22:27.668Z,99231.63
2019-04-07T22:24:58.020Z,99236.43
2019-04-07T22:27:28.680Z,99234.76
2019-04-07T22:29:59.926Z,99243.92
2019-04-07T22:32:31.062Z,99240.69
2019-04-07T22:35:04.781Z,99236.19
2019-04-07T22:37:32.884Z,99240.66
2019-04-07T22:40:03.394Z,99242.75
2019-04-07T22:42:33.030Z,99245.69
2019-04-07T22:45:02.491Z,99249.20
2019-04-07T22:47:31.962Z,99248.43
2019-04-07T22:50:05.147Z,99248.39
2019-04-07T22:52:32.677Z,99248.89
2019-04-07T22:55:06.754Z,99248.81
2019-04-07T22:57:34.325Z,99249.74
2019-04-07T23:00:06.442Z,99255.84
2019-04-07T23:02:36.180Z,99266.22
2019-04-07T23:05:07.201Z,99270.74
2019-04-07T23:07:37.325Z,99278.71
2019-04-07T23:10:06.543Z,99273.16
2019-04-07T23:12:36.151Z,99273.36
2019-04-07T23:15:07.358Z,99270.95
2019-04-07T23:17:36.835Z,99269.13
2019-04-07T23:20:07.705Z,99274.50
2019-04-07T23:22:38.201Z,99271.30
2019-04-07T23:25:09.849Z,99275.27
2019-04-07T23:27:39.377Z,99270.33
2019-04-07T23:30:11.034Z,99278.52
2019-04-07T23:32:41.503Z,99278.80
2019-04-07T23:35:12.446Z,99281.09
2019-04-07T23:37:41.435Z,99272.91
2019-04-07T23:40:11.480Z,99275.41
2019-04-07T23:42:40.917Z,99263.64
2019-04-07T23:45:10.863Z,99270.88
2019-04-07T23:47:40.721Z,99275.33
2019-04-07T23:50:11.162Z,99267.33
2019-04-07T23:52:41.179Z,99273.82
2019-04-07T23:55:10.909Z,99271.20
2019-04-07T23:57:40.320Z,99271.97
